Time;durP1;ratioP1;P1;durP2;ratioP2;P2;SDS_P1;SDS_P2;PMS_P1;PMS_P2;Temp;Humidity;BMP_temperature;BMP_pressure;BME280_temperature;BME280_humidity;BME280_pressure;Samples;Min_cycle;Max_cycle;Signal;HPM_P1;HPM_P2
2023/10/04 00:02:06;;;;;;;1.70;1.00;;;;;;;;;;5068473;28;20815;-66
2023/10/04 00:04:34;;;;;;;3.67;1.63;;;;;;;;;;5067742;28;20202;-65
2023/10/04 00:07:04;;;;;;;1.70;1.43;;;;;;;;;;5068820;28;20342;-65
2023/10/04 00:09:31;;;;;;;2.20;1.33;;;;;;;;;;5068973;28;20595;-65
2023/10/04 00:11:59;;;;;;;2.43;1.47;;;;;;;;;;5068552;28;20222;-66
2023/10/04 00:14:26;;;;;;;1.23;1.23;;;;;;;;;;5068090;28;20745;-65
2023/10/04 00:16:54;;;;;;;1.60;1.50;;;;;;;;;;5067293;28;20211;-65
2023/10/04 00:19:21;;;;;;;1.53;1.33;;;;;;;;;;5067979;28;20294;-65
2023/10/04 00:21:48;;;;;;;2.27;1.30;;;;;;;;;;5067777;28;20191;-64
2023/10/04 00:24:16;;;;;;;4.10;1.40;;;;;;;;;;5067743;28;20215;-64
2023/10/04 00:26:44;;;;;;;3.97;1.10;;;;;;;;;;5059918;28;20225;-64
2023/10/04 00:29:11;;;;;;;1.30;1.20;;;;;;;;;;5067183;28;20653;-64
2023/10/04 00:31:38;;;;;;;1.23;1.23;;;;;;;;;;5066967;28;20322;-64
2023/10/04 00:34:08;;;;;;;1.27;1.20;;;;;;;;;;5066896;28;20206;-64
2023/10/04 00:36:35;;;;;;;2.53;1.40;;;;;;;;;;5067085;28;20306;-64
2023/10/04 00:39:03;;;;;;;3.27;1.47;;;;;;;;;;5066476;28;20214;-65
2023/10/04 00:41:32;;;;;;;3.37;1.47;;;;;;;;;;5067130;28;20203;-64
2023/10/04 00:44:01;;;;;;;1.47;1.37;;;;;;;;;;5066838;28;20223;-64
2023/10/04 00:46:29;;;;;;;2.63;1.10;;;;;;;;;;5066890;28;20227;-64
2023/10/04 00:48:57;;;;;;;3.87;1.17;;;;;;;;;;5067053;28;20909;-64
2023/10/04 00:51:26;;;;;;;1.90;1.47;;;;;;;;;;5063498;28;20260;-64
2023/10/04 00:53:55;;;;;;;1.40;1.40;;;;;;;;;;5062687;28;20252;-65
2023/10/04 00:56:23;;;;;;;1.13;1.13;;;;;;;;;;5067243;28;20292;-64
2023/10/04 00:58:53;;;;;;;1.40;1.30;;;;;;;;;;5066393;28;20891;-64
2023/10/04 01:01:20;;;;;;;1.27;1.13;;;;;;;;;;5059419;28;20202;-64
2023/10/04 01:03:47;;;;;;;1.47;1.17;;;;;;;;;;5067217;28;20237;-64
2023/10/04 01:06:15;;;;;;;1.20;1.10;;;;;;;;;;5066401;28;20214;-65
2023/10/04 01:08:43;;;;;;;2.27;1.40;;;;;;;;;;5067666;28;20257;-65
2023/10/04 01:11:10;;;;;;;4.00;1.70;;;;;;;;;;5066912;28;20218;-65
2023/10/04 01:13:38;;;;;;;1.00;1.00;;;;;;;;;;5067073;28;20207;-65
2023/10/04 01:16:09;;;;;;;1.70;1.60;;;;;;;;;;5066815;28;20211;-65
2023/10/04 01:18:36;;;;;;;1.30;1.20;;;;;;;;;;5065838;28;20608;-65
2023/10/04 01:21:05;;;;;;;1.53;1.43;;;;;;;;;;5067136;28;20206;-65
2023/10/04 01:23:34;;;;;;;1.97;1.57;;;;;;;;;;5061480;28;20207;-65
2023/10/04 01:26:01;;;;;;;2.10;1.50;;;;;;;;;;5067122;28;20230;-65
2023/10/04 01:28:28;;;;;;;1.60;1.50;;;;;;;;;;5067153;28;20238;-65
2023/10/04 01:30:56;;;;;;;2.57;1.20;;;;;;;;;;5067097;28;20203;-65
2023/10/04 01:33:23;;;;;;;4.60;1.53;;;;;;;;;;5066345;28;20222;-64
2023/10/04 01:35:54;;;;;;;2.33;2.00;;;;;;;;;;5066706;28;20298;-65
2023/10/04 01:38:24;;;;;;;1.40;1.37;;;;;;;;;;5066824;28;20207;-65
2023/10/04 01:40:53;;;;;;;6.23;1.53;;;;;;;;;;5067176;28;20203;-65
2023/10/04 01:43:20;;;;;;;3.57;1.60;;;;;;;;;;5066343;28;20250;-65
2023/10/04 01:45:49;;;;;;;6.83;1.40;;;;;;;;;;5066828;28;20230;-65
2023/10/04 01:48:16;;;;;;;2.03;1.10;;;;;;;;;;5066783;28;20972;-65
2023/10/04 01:50:43;;;;;;;2.47;1.23;;;;;;;;;;5066334;28;20302;-66
2023/10/04 01:53:11;;;;;;;2.50;1.53;;;;;;;;;;5066162;28;20234;-65
2023/10/04 01:55:40;;;;;;;3.33;1.40;;;;;;;;;;5065007;28;20206;-65
2023/10/04 01:58:08;;;;;;;2.90;1.40;;;;;;;;;;5059740;28;20239;-65
2023/10/04 02:00:36;;;;;;;1.70;1.60;;;;;;;;;;5059975;28;20235;-64
2023/10/04 02:03:03;;;;;;;3.40;1.40;;;;;;;;;;5065684;28;20206;-64
2023/10/04 02:05:31;;;;;;;1.47;1.37;;;;;;;;;;5065964;28;20234;-64
2023/10/04 02:07:59;;;;;;;2.17;1.50;;;;;;;;;;5066315;28;20199;-64
2023/10/04 02:10:26;;;;;;;3.23;1.50;;;;;;;;;;5066863;28;20294;-64
2023/10/04 02:12:55;;;;;;;4.10;1.53;;;;;;;;;;5065579;28;20305;-65
2023/10/04 02:15:24;;;;;;;1.23;1.23;;;;;;;;;;5066293;28;20198;-65
2023/10/04 02:17:53;;;;;;;1.40;1.30;;;;;;;;;;5066324;28;20207;-64
2023/10/04 02:20:23;;;;;;;2.80;1.13;;;;;;;;;;5066787;28;20217;-65
2023/10/04 02:22:50;;;;;;;2.17;1.13;;;;;;;;;;5065726;28;20199;-64
2023/10/04 02:25:18;;;;;;;2.27;1.60;;;;;;;;;;5066131;28;20207;-64
2023/10/04 02:27:46;;;;;;;1.33;1.30;;;;;;;;;;5061764;28;20623;-65
2023/10/04 02:30:21;;;;;;;1.83;1.30;;;;;;;;;;5066408;28;20577;-65
2023/10/04 02:32:50;;;;;;;7.57;1.60;;;;;;;;;;5065496;28;20232;-65
2023/10/04 02:35:24;;;;;;;1.63;1.37;;;;;;;;;;5065965;28;20207;-65
2023/10/04 02:37:54;;;;;;;4.70;1.20;;;;;;;;;;5065872;28;20237;-64
2023/10/04 02:40:22;;;;;;;1.70;1.60;;;;;;;;;;5066385;28;20203;-64
2023/10/04 02:42:49;;;;;;;2.17;1.27;;;;;;;;;;5065447;28;20211;-64
2023/10/04 02:45:19;;;;;;;1.97;1.43;;;;;;;;;;5064734;28;20889;-64
2023/10/04 02:47:48;;;;;;;2.70;1.20;;;;;;;;;;5065512;28;20203;-65
2023/10/04 02:50:17;;;;;;;1.77;1.67;;;;;;;;;;5065949;28;20685;-64
2023/10/04 02:52:44;;;;;;;1.77;1.40;;;;;;;;;;5065845;28;20226;-64
2023/10/04 02:55:15;;;;;;;1.43;1.33;;;;;;;;;;5065408;28;20416;-64
2023/10/04 02:57:42;;;;;;;2.40;1.30;;;;;;;;;;5063872;28;20203;-65
2023/10/04 03:00:11;;;;;;;2.20;1.73;;;;;;;;;;5065146;28;20686;-64
2023/10/04 03:02:39;;;;;;;1.67;1.57;;;;;;;;;;5064183;28;20195;-65
2023/10/04 03:05:06;;;;;;;2.80;1.67;;;;;;;;;;5064157;28;20211;-66
2023/10/04 03:07:35;;;;;;;4.30;2.03;;;;;;;;;;5065723;28;20199;-64
2023/10/04 03:10:04;;;;;;;1.43;1.43;;;;;;;;;;5065536;28;20720;-65
2023/10/04 03:12:31;;;;;;;1.40;1.37;;;;;;;;;;5065396;28;20222;-65
2023/10/04 03:14:58;;;;;;;1.73;1.43;;;;;;;;;;5065579;28;20290;-64
2023/10/04 03:17:26;;;;;;;1.77;1.60;;;;;;;;;;5065762;28;20210;-64
2023/10/04 03:19:53;;;;;;;1.33;1.23;;;;;;;;;;5065369;28;20603;-64
2023/10/04 03:22:22;;;;;;;3.33;1.30;;;;;;;;;;5065645;28;20207;-64
2023/10/04 03:24:51;;;;;;;1.20;1.20;;;;;;;;;;5065282;28;20206;-65
2023/10/04 03:27:21;;;;;;;1.63;1.53;;;;;;;;;;5065250;28;20207;-65
2023/10/04 03:29:53;;;;;;;6.03;2.10;;;;;;;;;;5065615;28;20209;-65
2023/10/04 03:32:21;;;;;;;4.10;1.70;;;;;;;;;;5064920;28;20319;-64
2023/10/04 03:34:48;;;;;;;4.43;1.83;;;;;;;;;;5064402;28;20210;-64
2023/10/04 03:37:22;;;;;;;3.23;1.70;;;;;;;;;;5064568;28;20243;-64
2023/10/04 03:39:54;;;;;;;2.40;1.20;;;;;;;;;;5065561;28;20661;-65
2023/10/04 03:42:23;;;;;;;2.10;1.33;;;;;;;;;;5065200;28;20215;-65
2023/10/04 03:44:50;;;;;;;1.77;1.30;;;;;;;;;;5064953;28;20238;-65
2023/10/04 03:47:20;;;;;;;1.80;1.60;;;;;;;;;;5064952;28;20286;-65
2023/10/04 03:49:49;;;;;;;3.73;1.23;;;;;;;;;;5065505;28;20323;-65
2023/10/04 03:52:16;;;;;;;2.00;1.60;;;;;;;;;;5064630;28;20314;-64
2023/10/04 03:54:45;;;;;;;2.17;1.57;;;;;;;;;;5065104;28;20587;-65
2023/10/04 03:57:14;;;;;;;2.53;1.30;;;;;;;;;;5064329;28;20203;-65
2023/10/04 03:59:44;;;;;;;2.03;1.50;;;;;;;;;;5054654;28;20664;-65
2023/10/04 04:02:11;;;;;;;2.30;1.50;;;;;;;;;;5063513;28;20234;-64
2023/10/04 04:04:38;;;;;;;2.33;1.57;;;;;;;;;;5064359;28;20222;-65
2023/10/04 04:07:05;;;;;;;2.77;1.73;;;;;;;;;;5065139;28;20215;-65
2023/10/04 04:09:33;;;;;;;3.97;1.67;;;;;;;;;;5065211;28;20716;-64
2023/10/04 04:12:00;;;;;;;2.07;1.43;;;;;;;;;;5065865;28;20305;-65
2023/10/04 04:14:29;;;;;;;4.03;1.60;;;;;;;;;;5068177;28;20201;-64
2023/10/04 04:16:56;;;;;;;2.73;1.40;;;;;;;;;;5066665;28;20206;-63
2023/10/04 04:19:23;;;;;;;1.90;1.63;;;;;;;;;;5068448;28;20399;-64
2023/10/04 04:21:50;;;;;;;2.00;1.63;;;;;;;;;;5067090;28;20769;-64
2023/10/04 04:24:17;;;;;;;1.50;1.37;;;;;;;;;;5068004;28;20214;-64
2023/10/04 04:26:46;;;;;;;3.07;1.30;;;;;;;;;;5066932;28;20221;-64
2023/10/04 04:29:13;;;;;;;1.90;1.30;;;;;;;;;;5067016;28;20207;-64
2023/10/04 04:31:42;;;;;;;2.30;1.30;;;;;;;;;;5066776;28;20224;-64
2023/10/04 04:34:13;;;;;;;1.40;1.20;;;;;;;;;;5067931;28;20704;-64
2023/10/04 04:36:42;;;;;;;1.63;1.53;;;;;;;;;;5066939;28;20213;-64
2023/10/04 04:39:13;;;;;;;1.90;1.40;;;;;;;;;;5067624;28;20302;-64
2023/10/04 04:41:40;;;;;;;3.53;1.43;;;;;;;;;;5066294;28;20687;-65
2023/10/04 04:44:08;;;;;;;1.47;1.33;;;;;;;;;;5066733;28;20676;-65
2023/10/04 04:46:35;;;;;;;1.73;1.63;;;;;;;;;;5066459;28;20347;-67
2023/10/04 04:49:04;;;;;;;5.60;1.40;;;;;;;;;;5067158;28;20825;-65
2023/10/04 04:51:31;;;;;;;3.10;1.53;;;;;;;;;;5066746;28;20195;-64
2023/10/04 04:53:58;;;;;;;3.40;1.43;;;;;;;;;;5065588;28;20227;-65
2023/10/04 04:56:26;;;;;;;2.60;1.40;;;;;;;;;;5067175;28;20290;-65
2023/10/04 04:58:56;;;;;;;4.37;1.57;;;;;;;;;;5067444;28;20272;-65
2023/10/04 05:01:23;;;;;;;2.10;1.43;;;;;;;;;;5066926;28;20309;-65
2023/10/04 05:03:51;;;;;;;2.17;1.27;;;;;;;;;;5078419;28;20206;-65
2023/10/04 05:06:22;;;;;;;2.67;1.53;;;;;;;;;;5066674;28;20214;-65
2023/10/04 05:08:49;;;;;;;2.00;1.60;;;;;;;;;;5065345;28;20207;-65
2023/10/04 05:11:17;;;;;;;1.40;1.30;;;;;;;;;;5062371;28;20206;-65
2023/10/04 05:13:45;;;;;;;4.33;1.77;;;;;;;;;;5065523;28;20219;-65
2023/10/04 05:16:12;;;;;;;2.53;1.47;;;;;;;;;;5062911;28;20334;-64
2023/10/04 05:18:39;;;;;;;1.47;1.03;;;;;;;;;;5067418;28;20200;-65
2023/10/04 05:21:10;;;;;;;2.50;1.30;;;;;;;;;;5053945;28;20220;-65
2023/10/04 05:23:38;;;;;;;4.43;2.10;;;;;;;;;;5064445;28;20231;-65
2023/10/04 05:26:08;;;;;;;1.93;1.60;;;;;;;;;;5055638;28;20393;-64
2023/10/04 05:28:35;;;;;;;2.83;1.90;;;;;;;;;;5066381;28;20575;-65
2023/10/04 05:31:03;;;;;;;1.97;1.23;;;;;;;;;;5065215;28;20234;-65
2023/10/04 05:33:30;;;;;;;1.40;1.30;;;;;;;;;;5065960;28;20226;-65
2023/10/04 05:36:00;;;;;;;1.70;1.43;;;;;;;;;;5065917;28;20796;-66
2023/10/04 05:38:28;;;;;;;3.90;1.70;;;;;;;;;;5066535;28;20221;-64
2023/10/04 05:40:57;;;;;;;4.93;1.67;;;;;;;;;;5066946;28;20230;-64
2023/10/04 05:43:24;;;;;;;3.00;1.67;;;;;;;;;;5064319;28;20751;-64
2023/10/04 05:45:51;;;;;;;1.73;1.40;;;;;;;;;;5066081;28;20239;-65
2023/10/04 05:48:19;;;;;;;3.43;1.30;;;;;;;;;;5066093;28;20211;-64
2023/10/04 05:50:49;;;;;;;2.90;1.37;;;;;;;;;;5066010;28;20237;-64
2023/10/04 05:53:19;;;;;;;2.23;1.47;;;;;;;;;;5065974;28;20257;-64
2023/10/04 05:55:48;;;;;;;2.57;1.53;;;;;;;;;;5065999;28;20209;-64
2023/10/04 05:58:18;;;;;;;1.37;1.23;;;;;;;;;;5065572;28;20294;-64
2023/10/04 06:00:51;;;;;;;2.93;1.57;;;;;;;;;;5065148;28;20560;-64
2023/10/04 06:03:18;;;;;;;3.90;1.47;;;;;;;;;;5065627;28;20201;-65
2023/10/04 06:05:45;;;;;;;3.30;1.60;;;;;;;;;;5065058;28;20207;-65
2023/10/04 06:08:15;;;;;;;1.57;1.47;;;;;;;;;;5046123;28;20304;-64
2023/10/04 06:10:43;;;;;;;1.73;1.63;;;;;;;;;;5062440;28;20213;-65
2023/10/04 06:13:11;;;;;;;2.80;1.93;;;;;;;;;;5065163;28;20227;-65
2023/10/04 06:15:41;;;;;;;2.70;1.53;;;;;;;;;;5064735;28;20427;-65
2023/10/04 06:18:09;;;;;;;1.90;1.80;;;;;;;;;;5065595;28;20238;-66
2023/10/04 06:20:38;;;;;;;2.97;2.07;;;;;;;;;;5065390;28;20260;-65
2023/10/04 06:23:06;;;;;;;8.17;2.27;;;;;;;;;;5065669;28;20199;-66
2023/10/04 06:25:34;;;;;;;1.67;1.57;;;;;;;;;;5065674;28;20256;-65
2023/10/04 06:28:03;;;;;;;2.17;1.97;;;;;;;;;;5065486;28;20217;-65
2023/10/04 06:30:31;;;;;;;5.37;2.03;;;;;;;;;;5065645;28;20213;-65
2023/10/04 06:33:00;;;;;;;1.90;1.80;;;;;;;;;;5065281;28;20665;-65
2023/10/04 06:35:28;;;;;;;2.23;1.80;;;;;;;;;;5064595;28;20211;-65
2023/10/04 06:37:56;;;;;;;2.97;1.70;;;;;;;;;;5065282;28;20586;-65
2023/10/04 06:40:24;;;;;;;3.67;1.80;;;;;;;;;;5065430;28;20744;-65
2023/10/04 06:42:51;;;;;;;2.67;2.03;;;;;;;;;;5065366;28;20839;-65
2023/10/04 06:45:19;;;;;;;2.43;1.83;;;;;;;;;;5065307;28;20238;-64
2023/10/04 06:47:47;;;;;;;2.40;1.80;;;;;;;;;;5065244;28;20211;-64
2023/10/04 06:50:18;;;;;;;5.07;1.97;;;;;;;;;;5065491;28;20291;-64
2023/10/04 06:52:47;;;;;;;3.13;2.00;;;;;;;;;;5065521;28;20306;-64
2023/10/04 06:55:14;;;;;;;4.30;1.80;;;;;;;;;;5064549;28;20233;-64
2023/10/04 06:57:41;;;;;;;6.10;1.90;;;;;;;;;;5064615;28;20234;-64
2023/10/04 07:00:14;;;;;;;4.33;2.00;;;;;;;;;;5064653;28;20211;-65
2023/10/04 07:02:45;;;;;;;3.43;1.70;;;;;;;;;;5064811;28;20765;-64
2023/10/04 07:05:17;;;;;;;6.23;2.63;;;;;;;;;;5064762;28;20601;-64
2023/10/04 07:07:45;;;;;;;1.70;1.60;;;;;;;;;;5065737;28;20215;-64
2023/10/04 07:10:15;;;;;;;1.90;1.80;;;;;;;;;;5063937;28;20238;-64
2023/10/04 07:12:43;;;;;;;7.63;2.33;;;;;;;;;;5064943;28;20214;-64
2023/10/04 07:15:11;;;;;;;1.70;1.60;;;;;;;;;;5064929;28;20223;-64
2023/10/04 07:17:39;;;;;;;5.30;1.80;;;;;;;;;;5065173;28;20211;-64
2023/10/04 07:20:07;;;;;;;2.97;2.00;;;;;;;;;;5065448;28;20239;-64
2023/10/04 07:22:36;;;;;;;4.47;2.00;;;;;;;;;;5065549;28;20287;-65
2023/10/04 07:25:07;;;;;;;4.77;2.30;;;;;;;;;;5065858;28;20285;-64
2023/10/04 07:27:34;;;;;;;2.23;1.87;;;;;;;;;;5065485;28;20213;-65
2023/10/04 07:30:02;;;;;;;2.57;2.37;;;;;;;;;;5065837;28;20243;-64
2023/10/04 07:32:29;;;;;;;1.90;1.80;;;;;;;;;;5065260;28;20221;-66
2023/10/04 07:34:56;;;;;;;7.87;2.03;;;;;;;;;;5065294;28;20253;-65
2023/10/04 07:37:23;;;;;;;2.30;2.07;;;;;;;;;;5073562;28;20211;-64
2023/10/04 07:39:52;;;;;;;3.23;1.93;;;;;;;;;;5067003;28;20218;-64
2023/10/04 07:42:21;;;;;;;2.20;2.00;;;;;;;;;;5065522;28;20328;-64
2023/10/04 07:44:48;;;;;;;3.77;1.87;;;;;;;;;;5065103;28;20279;-64
2023/10/04 07:47:15;;;;;;;1.93;1.83;;;;;;;;;;5065643;28;20221;-65
2023/10/04 07:49:42;;;;;;;3.70;1.80;;;;;;;;;;5069435;28;20215;-64
2023/10/04 07:52:09;;;;;;;3.30;2.13;;;;;;;;;;5069316;28;20218;-63
2023/10/04 07:54:37;;;;;;;2.00;1.90;;;;;;;;;;5068907;28;20828;-63
2023/10/04 07:57:06;;;;;;;5.67;1.90;;;;;;;;;;5068867;28;20210;-65
2023/10/04 07:59:33;;;;;;;3.40;2.20;;;;;;;;;;5067472;28;20207;-63
2023/10/04 08:02:00;;;;;;;2.63;1.77;;;;;;;;;;5067983;28;20218;-63
2023/10/04 08:04:28;;;;;;;2.73;1.90;;;;;;;;;;5069194;28;20480;-66
2023/10/04 08:06:55;;;;;;;2.70;1.90;;;;;;;;;;5069167;28;20211;-65
2023/10/04 08:09:22;;;;;;;4.25;2.17;;;;;;;;;;5069096;28;20222;-64
2023/10/04 08:11:52;;;;;;;4.93;2.40;;;;;;;;;;5067897;28;20211;-67
2023/10/04 08:14:22;;;;;;;2.22;1.60;;;;;;;;;;5068811;28;20250;-64
2023/10/04 08:16:50;;;;;;;6.32;2.25;;;;;;;;;;5068625;28;20231;-65
2023/10/04 08:19:17;;;;;;;5.53;2.30;;;;;;;;;;5068581;28;20569;-63
2023/10/04 08:21:45;;;;;;;3.42;1.80;;;;;;;;;;5068462;28;20235;-64
2023/10/04 08:24:12;;;;;;;6.22;2.35;;;;;;;;;;5066770;28;20210;-62
2023/10/04 08:26:40;;;;;;;3.22;1.95;;;;;;;;;;5067495;28;20211;-64
2023/10/04 08:29:07;;;;;;;4.50;1.60;;;;;;;;;;5067780;28;20219;-62
2023/10/04 08:31:36;;;;;;;2.30;1.70;;;;;;;;;;5067322;28;20215;-62
2023/10/04 08:34:03;;;;;;;4.38;1.85;;;;;;;;;;5067612;28;20382;-64
2023/10/04 08:36:33;;;;;;;1.73;1.63;;;;;;;;;;5067052;28;20239;-64
2023/10/04 08:39:00;;;;;;;5.72;1.67;;;;;;;;;;5067283;28;20245;-63
2023/10/04 08:41:27;;;;;;;1.73;1.60;;;;;;;;;;5067461;28;20295;-64
2023/10/04 08:43:55;;;;;;;4.05;1.60;;;;;;;;;;5067499;28;20372;-64
2023/10/04 08:46:23;;;;;;;1.65;1.45;;;;;;;;;;5067300;28;20262;-63
2023/10/04 08:48:53;;;;;;;5.90;1.27;;;;;;;;;;5067414;28;20569;-63
2023/10/04 08:51:27;;;;;;;4.38;1.15;;;;;;;;;;5067069;28;20218;-63
2023/10/04 08:53:58;;;;;;;5.60;1.08;;;;;;;;;;5066726;28;20241;-65
2023/10/04 08:56:27;;;;;;;2.42;1.20;;;;;;;;;;5067170;28;20207;-63
2023/10/04 08:58:54;;;;;;;5.63;1.38;;;;;;;;;;5065840;28;20627;-63
2023/10/04 09:01:22;;;;;;;3.55;1.10;;;;;;;;;;5066993;28;20685;-63
2023/10/04 09:03:51;;;;;;;3.65;1.20;;;;;;;;;;5066947;28;20214;-67
2023/10/04 09:06:19;;;;;;;4.07;1.20;;;;;;;;;;5066934;28;20991;-64
2023/10/04 09:08:49;;;;;;;3.03;1.13;;;;;;;;;;5066811;28;20214;-62
2023/10/04 09:11:16;;;;;;;3.85;1.25;;;;;;;;;;5066261;28;20659;-62
2023/10/04 09:13:44;;;;;;;2.20;1.17;;;;;;;;;;5066529;28;20229;-63
2023/10/04 09:16:22;;;;;;;2.63;1.35;;;;;;;;;;5066837;28;20372;-64
2023/10/04 09:18:49;;;;;;;5.03;1.25;;;;;;;;;;5066513;28;20260;-62
2023/10/04 09:21:16;;;;;;;2.38;1.00;;;;;;;;;;5065477;28;20206;-62
2023/10/04 09:23:45;;;;;;;1.13;0.82;;;;;;;;;;5066654;28;20601;-64
2023/10/04 09:26:19;;;;;;;1.20;1.10;;;;;;;;;;5056491;28;20215;-64
2023/10/04 09:28:49;;;;;;;6.72;1.00;;;;;;;;;;5056762;28;20210;-62
2023/10/04 09:31:19;;;;;;;4.47;1.33;;;;;;;;;;5064481;28;20300;-64
2023/10/04 09:33:46;;;;;;;4.03;0.80;;;;;;;;;;5061967;28;20902;-65
2023/10/04 09:36:13;;;;;;;5.75;1.25;;;;;;;;;;5072032;28;20730;-63
2023/10/04 09:38:41;;;;;;;4.03;1.00;;;;;;;;;;5063882;28;20211;-62
2023/10/04 09:41:10;;;;;;;1.80;1.60;;;;;;;;;;5064122;28;20768;-62
2023/10/04 09:43:39;;;;;;;2.47;1.05;;;;;;;;;;5064241;28;20241;-62
2023/10/04 09:46:07;;;;;;;4.85;1.25;;;;;;;;;;5059459;28;20231;-64
2023/10/04 09:48:37;;;;;;;4.35;1.35;;;;;;;;;;5064533;28;20222;-64
2023/10/04 09:51:05;;;;;;;0.88;0.80;;;;;;;;;;5064604;28;20218;-62
2023/10/04 09:53:32;;;;;;;2.42;1.08;;;;;;;;;;5065000;28;20326;-64
2023/10/04 09:56:01;;;;;;;1.17;0.85;;;;;;;;;;5064713;28;20726;-62
2023/10/04 09:58:30;;;;;;;4.93;1.90;;;;;;;;;;5064718;28;20250;-63
2023/10/04 10:00:58;;;;;;;3.22;0.90;;;;;;;;;;5063067;28;20207;-62
2023/10/04 10:03:27;;;;;;;3.60;1.10;;;;;;;;;;5064677;28;20767;-63
2023/10/04 10:05:56;;;;;;;5.30;1.20;;;;;;;;;;5064990;28;20239;-60
2023/10/04 10:08:27;;;;;;;1.90;1.50;;;;;;;;;;5064961;28;20280;-63
2023/10/04 10:10:54;;;;;;;1.67;1.10;;;;;;;;;;5065532;28;20582;-62
2023/10/04 10:13:22;;;;;;;2.83;1.02;;;;;;;;;;5065917;28;20199;-62
2023/10/04 10:15:53;;;;;;;4.70;1.27;;;;;;;;;;5065728;28;20317;-63
2023/10/04 10:18:21;;;;;;;2.30;1.33;;;;;;;;;;5066245;28;20211;-64
2023/10/04 10:20:48;;;;;;;0.90;0.90;;;;;;;;;;5065749;28;20214;-64
2023/10/04 10:23:16;;;;;;;1.25;1.10;;;;;;;;;;5065745;28;20210;-62
2023/10/04 10:25:58;;;;;;;4.53;1.20;;;;;;;;;;5065444;28;20672;-65
2023/10/04 10:28:25;;;;;;;1.80;1.17;;;;;;;;;;5065725;28;20194;-62
2023/10/04 10:31:01;;;;;;;3.67;1.30;;;;;;;;;;5053377;28;20645;-62
2023/10/04 10:33:36;;;;;;;3.47;1.35;;;;;;;;;;5046885;28;20203;-62
2023/10/04 10:36:04;;;;;;;3.88;1.20;;;;;;;;;;5072441;28;20604;-66
2023/10/04 10:38:32;;;;;;;3.17;1.40;;;;;;;;;;5065888;28;20218;-62
2023/10/04 10:40:59;;;;;;;2.75;1.42;;;;;;;;;;5065525;28;20814;-63
2023/10/04 10:43:26;;;;;;;1.25;1.10;;;;;;;;;;5064969;28;20223;-62
2023/10/04 10:45:53;;;;;;;4.80;1.50;;;;;;;;;;5065050;28;20222;-64
2023/10/04 10:48:33;;;;;;;3.15;1.35;;;;;;;;;;5063900;28;20211;-62
2023/10/04 10:51:01;;;;;;;3.55;1.25;;;;;;;;;;5064026;28;20696;-62
2023/10/04 10:53:28;;;;;;;2.90;1.20;;;;;;;;;;5065438;28;20195;-62
2023/10/04 10:55:55;;;;;;;1.77;1.38;;;;;;;;;;5064980;28;20314;-62
2023/10/04 10:58:22;;;;;;;2.17;1.60;;;;;;;;;;5065915;28;20217;-61
2023/10/04 11:00:49;;;;;;;4.70;1.50;;;;;;;;;;5064276;28;20195;-62
2023/10/04 11:03:20;;;;;;;2.40;1.67;;;;;;;;;;5064074;28;20203;-62
2023/10/04 11:05:48;;;;;;;3.03;1.38;;;;;;;;;;5073294;28;20215;-62
2023/10/04 11:08:16;;;;;;;2.20;1.58;;;;;;;;;;5065969;28;20211;-62
2023/10/04 11:10:43;;;;;;;1.52;1.38;;;;;;;;;;5066054;28;20225;-64
2023/10/04 11:13:17;;;;;;;6.03;1.50;;;;;;;;;;5064949;28;20214;-64
2023/10/04 11:15:46;;;;;;;1.58;1.25;;;;;;;;;;5060834;28;20325;-67
2023/10/04 11:18:14;;;;;;;5.63;1.60;;;;;;;;;;5064859;28;20384;-64
2023/10/04 11:20:41;;;;;;;4.80;1.60;;;;;;;;;;5062672;28;20218;-69
2023/10/04 11:23:11;;;;;;;2.50;1.50;;;;;;;;;;5075597;28;20209;-62
2023/10/04 11:25:38;;;;;;;3.20;1.65;;;;;;;;;;5068861;28;20199;-65
2023/10/04 11:28:07;;;;;;;3.58;1.92;;;;;;;;;;5064780;28;20210;-63
2023/10/04 11:30:34;;;;;;;6.82;1.92;;;;;;;;;;5067361;28;20203;-63
2023/10/04 11:33:01;;;;;;;4.78;1.90;;;;;;;;;;5068200;28;20210;-62
2023/10/04 11:35:33;;;;;;;5.18;2.03;;;;;;;;;;5068770;28;20613;-62
2023/10/04 11:38:05;;;;;;;3.22;1.70;;;;;;;;;;5068918;28;20206;-65
2023/10/04 11:40:34;;;;;;;2.90;1.70;;;;;;;;;;5067470;28;20611;-62
2023/10/04 11:43:02;;;;;;;2.55;1.50;;;;;;;;;;5068872;28;20237;-64
2023/10/04 11:45:30;;;;;;;1.52;1.42;;;;;;;;;;5068004;28;20242;-64
2023/10/04 11:47:59;;;;;;;2.08;1.42;;;;;;;;;;5068502;28;20234;-63
2023/10/04 11:50:27;;;;;;;3.05;1.70;;;;;;;;;;5068816;28;20284;-62
2023/10/04 11:52:56;;;;;;;3.58;1.70;;;;;;;;;;5068936;28;20290;-62
2023/10/04 11:55:26;;;;;;;1.77;1.67;;;;;;;;;;5068392;28;20325;-63
2023/10/04 11:58:04;;;;;;;4.97;1.60;;;;;;;;;;5067813;28;20207;-63
2023/10/04 12:00:31;;;;;;;4.28;1.80;;;;;;;;;;5068841;28;20202;-63
2023/10/04 12:02:59;;;;;;;5.88;1.77;;;;;;;;;;5068612;28;20215;-61
2023/10/04 12:05:26;;;;;;;3.03;1.80;;;;;;;;;;5068125;28;20211;-61
2023/10/04 12:07:54;;;;;;;6.95;1.77;;;;;;;;;;5070822;28;20203;-61
2023/10/04 12:10:22;;;;;;;1.65;1.55;;;;;;;;;;5068339;28;20237;-61
2023/10/04 12:12:49;;;;;;;3.67;2.05;;;;;;;;;;5067398;28;20657;-61
2023/10/04 12:15:17;;;;;;;4.32;1.52;;;;;;;;;;5067060;28;20230;-61
2023/10/04 12:17:45;;;;;;;3.50;1.85;;;;;;;;;;5065233;28;20302;-61
2023/10/04 12:20:12;;;;;;;3.60;1.88;;;;;;;;;;5058412;28;20212;-61
2023/10/04 12:22:40;;;;;;;4.55;1.63;;;;;;;;;;5057710;28;20228;-61
2023/10/04 12:25:08;;;;;;;4.53;2.40;;;;;;;;;;5066596;28;20689;-61
2023/10/04 12:27:35;;;;;;;1.92;1.63;;;;;;;;;;5068344;28;20203;-60
2023/10/04 12:30:05;;;;;;;5.20;1.80;;;;;;;;;;5067084;28;20210;-61
2023/10/04 12:32:33;;;;;;;4.57;2.00;;;;;;;;;;5066445;28;20296;-61
2023/10/04 12:35:13;;;;;;;3.85;1.92;;;;;;;;;;5063315;28;20326;-61
2023/10/04 12:37:40;;;;;;;2.28;1.90;;;;;;;;;;5062858;28;20211;-61
2023/10/04 12:40:16;;;;;;;3.58;1.95;;;;;;;;;;5067479;28;20736;-62
2023/10/04 12:42:43;;;;;;;8.10;2.03;;;;;;;;;;5067493;28;20257;-61
2023/10/04 12:45:11;;;;;;;4.53;2.72;;;;;;;;;;5065768;28;20649;-61
2023/10/04 12:47:41;;;;;;;5.65;2.20;;;;;;;;;;5067167;28;20587;-67
2023/10/04 12:50:09;;;;;;;3.58;2.25;;;;;;;;;;5068035;28;20211;-61
2023/10/04 12:52:36;;;;;;;2.03;1.88;;;;;;;;;;5077567;28;20202;-61
2023/10/04 12:55:05;;;;;;;3.78;2.25;;;;;;;;;;5078229;28;20213;-60
2023/10/04 12:57:32;;;;;;;4.50;2.20;;;;;;;;;;5066894;28;20443;-61
2023/10/04 12:59:59;;;;;;;6.13;2.80;;;;;;;;;;5067263;28;20589;-61
2023/10/04 13:02:26;;;;;;;3.30;2.33;;;;;;;;;;5066658;28;20215;-61
2023/10/04 13:04:55;;;;;;;4.32;3.05;;;;;;;;;;5067010;28;20222;-61
2023/10/04 13:07:22;;;;;;;3.53;2.15;;;;;;;;;;5066311;28;20207;-61
2023/10/04 13:09:50;;;;;;;6.18;2.03;;;;;;;;;;5066393;28;20223;-63
2023/10/04 13:12:17;;;;;;;1.95;1.83;;;;;;;;;;5065975;28;20214;-63
2023/10/04 13:14:44;;;;;;;5.28;2.33;;;;;;;;;;5066693;28;20234;-60
2023/10/04 13:17:11;;;;;;;3.30;1.88;;;;;;;;;;5069536;28;20605;-61
2023/10/04 13:19:38;;;;;;;5.53;2.40;;;;;;;;;;5068789;28;20668;-61
2023/10/04 13:22:09;;;;;;;4.80;2.75;;;;;;;;;;5066370;28;20898;-61
2023/10/04 13:24:37;;;;;;;5.07;2.40;;;;;;;;;;5070208;28;20903;-61
2023/10/04 13:27:04;;;;;;;4.50;2.63;;;;;;;;;;5077868;28;20249;-61
2023/10/04 13:29:31;;;;;;;7.05;2.72;;;;;;;;;;5087344;28;20221;-61
2023/10/04 13:31:58;;;;;;;4.90;2.65;;;;;;;;;;5086542;28;20671;-61
2023/10/04 13:34:25;;;;;;;4.93;2.78;;;;;;;;;;5076114;28;20752;-60
2023/10/04 13:36:52;;;;;;;5.90;2.42;;;;;;;;;;5066359;28;20242;-64
2023/10/04 13:39:22;;;;;;;5.63;3.25;;;;;;;;;;5066732;28;20210;-62
2023/10/04 13:41:49;;;;;;;4.97;2.58;;;;;;;;;;5066612;28;20450;-62
2023/10/04 13:44:18;;;;;;;4.50;2.60;;;;;;;;;;5066123;28;20218;-63
2023/10/04 13:46:48;;;;;;;4.28;2.53;;;;;;;;;;5066261;28;20218;-62
2023/10/04 13:49:15;;;;;;;2.60;2.40;;;;;;;;;;5065988;28;20905;-62
2023/10/04 13:51:42;;;;;;;5.35;2.83;;;;;;;;;;5078111;28;20674;-61
2023/10/04 13:54:09;;;;;;;2.72;2.45;;;;;;;;;;5076735;28;20215;-62
2023/10/04 13:56:38;;;;;;;6.28;2.80;;;;;;;;;;5066454;28;20230;-61
2023/10/04 13:59:05;;;;;;;7.75;2.65;;;;;;;;;;5072847;28;20215;-61
2023/10/04 14:01:33;;;;;;;4.80;2.72;;;;;;;;;;5065961;28;20448;-62
2023/10/04 14:04:00;;;;;;;4.78;2.97;;;;;;;;;;5064824;28;20264;-64
2023/10/04 14:06:27;;;;;;;6.05;2.78;;;;;;;;;;5062475;28;20582;-63
2023/10/04 14:08:55;;;;;;;4.80;2.38;;;;;;;;;;5073346;28;20677;-61
2023/10/04 14:11:22;;;;;;;4.32;2.53;;;;;;;;;;5064971;28;20318;-63
2023/10/04 14:13:51;;;;;;;5.60;3.08;;;;;;;;;;5065741;28;20408;-61
2023/10/04 14:16:19;;;;;;;6.10;3.15;;;;;;;;;;5076597;28;20230;-60
2023/10/04 14:18:47;;;;;;;5.50;2.90;;;;;;;;;;5077817;28;20754;-61
2023/10/04 14:21:14;;;;;;;6.00;2.88;;;;;;;;;;5065533;28;20665;-64
2023/10/04 14:23:41;;;;;;;4.70;2.70;;;;;;;;;;5064962;28;20210;-63
2023/10/04 14:26:09;;;;;;;4.00;2.42;;;;;;;;;;5065457;28;20301;-61
2023/10/04 14:28:38;;;;;;;5.05;2.40;;;;;;;;;;5065707;28;20207;-63
2023/10/04 14:31:06;;;;;;;4.68;1.92;;;;;;;;;;5065085;28;20480;-61
2023/10/04 14:33:33;;;;;;;3.25;2.40;;;;;;;;;;5079209;28;20883;-60
2023/10/04 14:36:00;;;;;;;6.90;2.38;;;;;;;;;;5069765;28;20265;-62
2023/10/04 14:38:28;;;;;;;3.28;2.35;;;;;;;;;;5074545;28;20206;-60
2023/10/04 14:40:56;;;;;;;6.57;2.63;;;;;;;;;;5076722;28;20209;-62
2023/10/04 14:43:23;;;;;;;4.60;2.47;;;;;;;;;;5085150;28;20304;-61
2023/10/04 14:45:52;;;;;;;4.72;2.72;;;;;;;;;;5085192;28;20727;-61
2023/10/04 14:48:20;;;;;;;7.10;2.95;;;;;;;;;;5066230;28;20716;-61
2023/10/04 14:50:52;;;;;;;5.43;2.60;;;;;;;;;;5079507;28;20217;-62